Time;durP1;ratioP1;P1;durP2;ratioP2;P2;SDS_P1;SDS_P2;PMS_P1;PMS_P2;Temp;Humidity;BMP_temperature;BMP_pressure;BME280_temperature;BME280_humidity;BME280_pressure;Samples;Min_cycle;Max_cycle;Signal;HPM_P1;HPM_P2
2024/04/16 00:00:26;;;;;;;3.43;1.00;;;;;;;11.51;100.00;99649.94;5486006;26;20834;-73
2024/04/16 00:02:52;;;;;;;1.70;0.90;;;;;;;11.59;100.00;99643.16;5485992;26;20800;-74
2024/04/16 00:05:17;;;;;;;4.03;1.00;;;;;;;11.58;100.00;99641.53;5485952;26;20407;-74
2024/04/16 00:07:42;;;;;;;4.10;1.23;;;;;;;11.55;100.00;99633.94;5486127;26;20358;-74
2024/04/16 00:10:07;;;;;;;2.57;1.10;;;;;;;11.55;100.00;99618.47;5485852;26;20346;-74
2024/04/16 00:12:33;;;;;;;2.43;0.93;;;;;;;11.59;100.00;99616.03;5489512;26;20351;-74
2024/04/16 00:14:58;;;;;;;4.82;1.20;;;;;;;11.57;100.00;99605.44;5489501;26;20358;-74
2024/04/16 00:17:27;;;;;;;3.40;1.10;;;;;;;11.52;100.00;99615.47;5489720;26;20416;-75
2024/04/16 00:19:53;;;;;;;3.78;1.15;;;;;;;11.36;100.00;99615.47;5489249;26;20338;-74
2024/04/16 00:22:18;;;;;;;4.57;1.23;;;;;;;11.47;100.00;99616.28;5489445;26;20420;-74
2024/04/16 00:24:43;;;;;;;3.30;0.93;;;;;;;11.46;100.00;99604.63;5489562;26;20453;-75
2024/04/16 00:27:08;;;;;;;3.10;1.03;;;;;;;11.29;100.00;99598.66;5489539;26;20342;-74
2024/04/16 00:29:34;;;;;;;2.27;0.87;;;;;;;11.22;100.00;99594.56;5457123;26;20319;-74
2024/04/16 00:31:59;;;;;;;5.15;1.15;;;;;;;11.36;100.00;99591.03;5489403;26;20351;-74
2024/04/16 00:34:24;;;;;;;3.90;1.00;;;;;;;11.39;100.00;99598.63;5489418;26;20697;-74
2024/04/16 00:36:50;;;;;;;4.17;0.97;;;;;;;11.39;100.00;99590.50;5489490;26;20326;-74
2024/04/16 00:39:15;;;;;;;6.63;1.47;;;;;;;11.32;100.00;99595.41;5489101;26;20326;-74
2024/04/16 00:41:40;;;;;;;4.57;1.50;;;;;;;11.31;100.00;99591.06;5489332;26;20411;-74
2024/04/16 00:44:05;;;;;;;4.73;0.90;;;;;;;11.40;100.00;99581.28;5489306;26;20456;-74
2024/04/16 00:46:31;;;;;;;4.17;1.07;;;;;;;11.47;100.00;99586.44;5489206;26;20906;-74
2024/04/16 00:48:57;;;;;;;3.72;1.50;;;;;;;11.51;100.00;99589.44;5489103;26;20322;-74
2024/04/16 00:51:23;;;;;;;6.53;1.47;;;;;;;11.44;100.00;99595.13;5457058;26;20338;-74
2024/04/16 00:53:49;;;;;;;3.03;1.03;;;;;;;11.34;100.00;99587.78;5489050;26;20342;-74
2024/04/16 00:56:14;;;;;;;3.97;1.17;;;;;;;11.41;100.00;99568.53;5489312;26;20323;-74
2024/04/16 00:58:40;;;;;;;4.10;1.25;;;;;;;11.33;100.00;99574.50;5489145;26;20354;-74
2024/04/16 01:01:05;;;;;;;4.37;1.47;;;;;;;11.34;100.00;99573.41;5489138;26;20366;-74
2024/04/16 01:03:30;;;;;;;4.27;1.00;;;;;;;11.38;100.00;99569.91;5489095;26;20433;-73
2024/04/16 01:05:56;;;;;;;9.30;1.27;;;;;;;11.34;100.00;99566.09;5488935;26;20352;-73
2024/04/16 01:08:21;;;;;;;8.10;1.83;;;;;;;11.22;100.00;99572.88;5488975;26;20319;-74
2024/04/16 01:10:46;;;;;;;5.63;1.53;;;;;;;11.17;100.00;99573.69;5456499;26;20689;-74
2024/04/16 01:13:11;;;;;;;6.57;1.70;;;;;;;11.31;100.00;99565.81;5488882;26;20355;-74
2024/04/16 01:15:37;;;;;;;4.80;1.23;;;;;;;11.36;100.00;99560.41;5488858;26;20358;-74
2024/04/16 01:18:03;;;;;;;5.73;1.33;;;;;;;11.38;100.00;99556.34;5488697;26;20370;-74
2024/04/16 01:20:29;;;;;;;6.68;1.63;;;;;;;11.38;100.00;99553.63;5488759;26;20357;-74
2024/04/16 01:22:55;;;;;;;2.33;1.38;;;;;;;11.37;100.00;99560.13;5487331;26;20357;-74
2024/04/16 01:25:20;;;;;;;7.50;1.90;;;;;;;11.37;100.00;99559.31;5488782;26;20810;-74
2024/04/16 01:27:45;;;;;;;5.27;1.40;;;;;;;11.40;100.00;99545.19;5489121;26;20359;-74
2024/04/16 01:30:11;;;;;;;6.57;1.50;;;;;;;11.31;100.00;99553.09;5456576;26;20341;-74
2024/04/16 01:32:36;;;;;;;9.47;1.60;;;;;;;11.35;100.00;99542.50;5488692;26;20322;-74
2024/04/16 01:35:01;;;;;;;8.32;1.70;;;;;;;11.38;100.00;99534.63;5488475;26;20415;-74
2024/04/16 01:37:27;;;;;;;76.53;39.63;;;;;;;11.43;100.00;99544.66;5456195;26;20728;-74
2024/04/16 01:39:52;;;;;;;8.60;2.20;;;;;;;11.40;100.00;99543.31;5488666;26;20330;-74
2024/04/16 01:42:17;;;;;;;6.93;1.30;;;;;;;11.30;100.00;99535.16;5488457;26;20311;-74
2024/04/16 01:44:49;;;;;;;5.27;1.53;;;;;;;11.17;100.00;99535.72;5488466;26;20365;-74
2024/04/16 01:47:15;;;;;;;5.43;1.20;;;;;;;11.27;100.00;99527.56;5488416;26;20825;-74
2024/04/16 01:49:40;;;;;;;6.97;1.43;;;;;;;11.37;100.00;99537.59;5488249;26;20452;-74
2024/04/16 01:52:05;;;;;;;6.27;1.30;;;;;;;11.28;100.00;99531.09;5488588;26;20310;-74
2024/04/16 01:54:30;;;;;;;5.50;1.30;;;;;;;11.23;100.00;99540.03;5488142;26;20306;-74
2024/04/16 01:56:56;;;;;;;6.03;1.70;;;;;;;11.21;100.00;99536.81;5488565;26;20639;-74
2024/04/16 01:59:21;;;;;;;5.07;1.80;;;;;;;11.17;100.00;99540.31;5508042;26;20320;-74
2024/04/16 02:01:46;;;;;;;9.10;1.57;;;;;;;11.11;100.00;99544.13;5524556;26;20409;-73
2024/04/16 02:04:12;;;;;;;5.97;1.53;;;;;;;11.05;100.00;99540.59;5501489;26;20319;-74
2024/04/16 02:06:37;;;;;;;8.17;1.60;;;;;;;11.13;100.00;99539.25;5488363;26;20808;-74
2024/04/16 02:09:02;;;;;;;7.28;1.77;;;;;;;11.02;100.00;99538.44;5487919;26;20457;-74
2024/04/16 02:11:27;;;;;;;11.20;2.10;;;;;;;10.79;100.00;99539.75;5488053;26;20310;-74
2024/04/16 02:13:53;;;;;;;10.50;2.13;;;;;;;10.64;100.00;99538.88;5487779;26;20314;-74
2024/04/16 02:16:18;;;;;;;8.30;2.13;;;;;;;10.51;100.00;99542.91;5487977;26;20318;-74
2024/04/16 02:18:44;;;;;;;8.17;1.97;;;;;;;10.48;100.00;99546.16;5487736;26;20429;-74
2024/04/16 02:21:09;;;;;;;10.03;2.07;;;;;;;10.61;100.00;99544.84;5487856;26;20653;-74
2024/04/16 02:23:34;;;;;;;6.67;2.30;;;;;;;10.54;100.00;99538.88;5455567;26;20330;-74
2024/04/16 02:25:59;;;;;;;10.47;2.30;;;;;;;10.59;100.00;99547.00;5487757;26;20326;-74
2024/04/16 02:28:25;;;;;;;7.83;2.00;;;;;;;10.73;100.00;99545.44;5455617;26;20394;-74
2024/04/16 02:30:50;;;;;;;8.80;2.30;;;;;;;10.61;100.00;99542.94;5487833;26;20403;-74
2024/04/16 02:33:18;;;;;;;7.53;2.10;;;;;;;10.73;100.00;99548.16;5487537;26;20326;-74
2024/04/16 02:35:43;;;;;;;11.02;4.35;;;;;;;10.74;100.00;99547.03;5487670;26;21446;-74
2024/04/16 02:38:08;;;;;;;7.67;2.03;;;;;;;10.69;100.00;99556.00;5487501;26;20326;-74
2024/04/16 02:40:35;;;;;;;9.47;2.33;;;;;;;10.66;100.00;99553.00;5487693;26;20318;-74
2024/04/16 02:43:00;;;;;;;6.75;2.00;;;;;;;10.58;100.00;99554.31;5487527;26;20649;-74
2024/04/16 02:45:27;;;;;;;8.17;2.00;;;;;;;10.59;100.00;99561.38;5455010;26;20365;-74
2024/04/16 02:47:52;;;;;;;7.65;1.65;;;;;;;10.59;100.00;99561.38;5487438;26;20302;-75
2024/04/16 02:50:17;;;;;;;10.10;2.20;;;;;;;10.39;100.00;99572.16;5487399;26;20318;-74
2024/04/16 02:52:42;;;;;;;12.73;2.07;;;;;;;10.30;100.00;99582.69;5487439;26;20342;-74
2024/04/16 02:55:08;;;;;;;8.13;1.60;;;;;;;10.23;100.00;99578.56;5455351;26;20538;-74
2024/04/16 02:57:34;;;;;;;5.77;1.40;;;;;;;10.27;100.00;99585.09;5487323;26;20315;-74
2024/04/16 03:00:01;;;;;;;9.75;1.73;;;;;;;10.28;100.00;99590.22;5487128;26;20322;-74
2024/04/16 03:02:26;;;;;;;7.93;1.85;;;;;;;10.29;100.00;99572.91;5485960;26;20322;-74
2024/04/16 03:04:51;;;;;;;9.77;1.97;;;;;;;10.27;100.00;99579.69;5487177;26;20321;-74
2024/04/16 03:07:17;;;;;;;9.33;2.47;;;;;;;10.08;100.00;99575.75;5487234;26;20849;-74
2024/04/16 03:09:42;;;;;;;7.80;1.80;;;;;;;10.01;100.00;99577.91;5486979;26;20796;-74
2024/04/16 03:12:07;;;;;;;6.77;2.00;;;;;;;10.09;100.00;99569.25;5487032;26;20303;-74
2024/04/16 03:14:33;;;;;;;8.37;2.10;;;;;;;10.12;100.00;99576.84;5487001;26;20816;-74
2024/04/16 03:16:59;;;;;;;11.67;2.10;;;;;;;10.10;100.00;99573.59;5487180;26;20778;-74
2024/04/16 03:19:25;;;;;;;7.45;2.42;;;;;;;10.21;100.00;99572.59;5486776;26;20318;-74
2024/04/16 03:21:50;;;;;;;7.20;1.90;;;;;;;10.27;100.00;99574.28;5486896;26;20421;-73
2024/04/16 03:24:16;;;;;;;9.43;2.17;;;;;;;10.17;100.00;99580.47;5499859;26;20310;-74
2024/04/16 03:26:41;;;;;;;12.13;2.13;;;;;;;10.13;100.00;99578.50;5501886;26;20310;-74
2024/04/16 03:29:06;;;;;;;7.70;2.43;;;;;;;10.04;100.00;99572.78;5506537;26;20320;-74
2024/04/16 03:31:31;;;;;;;12.17;2.37;;;;;;;10.04;100.00;99571.97;5503587;26;20308;-74
2024/04/16 03:33:57;;;;;;;12.77;2.67;;;;;;;9.99;100.00;99572.72;5499888;26;20702;-74
2024/04/16 03:36:22;;;;;;;9.43;1.97;;;;;;;9.88;100.00;99557.50;5499798;26;20302;-74
2024/04/16 03:38:47;;;;;;;9.98;2.83;;;;;;;9.72;100.00;99558.50;5492472;26;20322;-74
2024/04/16 03:41:12;;;;;;;7.60;2.10;;;;;;;9.83;100.00;99550.19;5454441;26;20311;-74
2024/04/16 03:43:38;;;;;;;10.97;2.50;;;;;;;9.90;100.00;99549.97;5486723;26;20311;-74
2024/04/16 03:46:04;;;;;;;10.80;2.20;;;;;;;9.90;100.00;99552.66;5487871;26;20338;-73
2024/04/16 03:48:29;;;;;;;8.13;2.00;;;;;;;9.96;100.00;99551.59;5490169;26;20310;-74
2024/04/16 03:50:54;;;;;;;9.68;1.83;;;;;;;9.89;100.00;99548.31;5490002;26;20354;-74
2024/04/16 03:53:20;;;;;;;7.90;2.07;;;;;;;9.97;100.00;99550.53;5490092;26;20359;-74
2024/04/16 03:55:45;;;;;;;11.82;2.67;;;;;;;10.03;100.00;99549.47;5489974;26;20310;-74
2024/04/16 03:58:11;;;;;;;8.60;2.73;;;;;;;10.10;100.00;99551.94;5489979;26;20657;-74
2024/04/16 04:03:20;;;;;;;9.20;2.43;;;;;;;10.01;100.00;99551.63;5487672;26;20523;-74
2024/04/16 04:05:47;;;;;;;8.90;2.10;;;;;;;10.06;100.00;99564.38;5502894;26;20323;-74
2024/04/16 04:08:12;;;;;;;9.97;2.20;;;;;;;9.91;100.00;99557.00;5508323;26;20312;-74
2024/04/16 04:10:38;;;;;;;7.10;2.50;;;;;;;9.87;100.00;99555.91;5509697;26;20372;-74
2024/04/16 04:13:04;;;;;;;11.50;3.07;;;;;;;9.90;100.00;99550.78;5503038;26;20318;-73
2024/04/16 04:15:30;;;;;;;9.80;2.20;;;;;;;9.90;100.00;99552.66;5502807;26;20322;-73
2024/04/16 04:17:55;;;;;;;10.93;2.80;;;;;;;10.02;100.00;99552.44;5506344;26;20406;-74
2024/04/16 04:20:21;;;;;;;11.43;2.03;;;;;;;9.99;100.00;99555.66;5509442;26;20337;-74
2024/04/16 04:22:46;;;;;;;13.50;2.83;;;;;;;10.02;100.00;99557.84;5504585;26;20769;-74
2024/04/16 04:25:11;;;;;;;11.37;2.53;;;;;;;10.04;100.00;99563.84;5502614;26;20355;-74
2024/04/16 04:27:41;;;;;;;11.40;2.10;;;;;;;10.03;100.00;99568.44;5503793;26;20314;-74
2024/04/16 04:30:07;;;;;;;10.30;2.60;;;;;;;10.05;100.00;99562.75;5509314;26;20311;-74
2024/04/16 04:32:32;;;;;;;11.60;3.30;;;;;;;10.02;100.00;99565.97;5505669;26;20821;-74
2024/04/16 04:34:57;;;;;;;7.10;2.20;;;;;;;9.99;100.00;99569.22;5491789;26;20381;-74
2024/04/16 04:37:22;;;;;;;7.10;1.80;;;;;;;10.03;100.00;99571.13;5487187;26;20673;-74
2024/04/16 04:39:48;;;;;;;11.43;2.30;;;;;;;10.04;100.00;99575.47;5486857;26;20318;-74
2024/04/16 04:42:13;;;;;;;11.07;2.37;;;;;;;10.14;100.00;99575.53;5483208;26;20326;-73
2024/04/16 04:44:38;;;;;;;12.17;2.67;;;;;;;10.18;100.00;99573.94;5486634;26;20351;-73
2024/04/16 04:47:04;;;;;;;10.07;2.57;;;;;;;10.11;100.00;99570.63;5489393;26;20394;-73
2024/04/16 04:49:29;;;;;;;12.30;2.83;;;;;;;10.12;100.00;99568.72;5488994;26;20792;-73
2024/04/16 04:51:54;;;;;;;12.20;2.20;;;;;;;10.02;100.00;99568.69;5493915;26;20303;-73
2024/04/16 04:54:20;;;;;;;7.90;2.03;;;;;;;9.99;100.00;99566.50;5488422;26;20319;-71
2024/04/16 04:56:45;;;;;;;14.73;3.70;;;;;;;10.26;100.00;99567.22;5493833;26;20322;-73
2024/04/16 04:59:10;;;;;;;12.23;2.60;;;;;;;10.32;100.00;99577.81;5471624;26;20319;-73
2024/04/16 05:01:35;;;;;;;10.87;2.83;;;;;;;10.34;100.00;99572.13;5508593;26;20431;-72
2024/04/16 05:04:01;;;;;;;7.93;2.27;;;;;;;10.32;100.00;99576.97;5490484;26;20416;-72
2024/04/16 05:06:26;;;;;;;11.37;2.50;;;;;;;10.32;100.00;99576.97;5480151;26;20687;-72
2024/04/16 05:08:51;;;;;;;12.27;2.60;;;;;;;10.32;100.00;99585.13;5473139;26;20426;-74
2024/04/16 05:11:16;;;;;;;12.93;2.67;;;;;;;10.42;100.00;99587.88;5454435;26;20367;-74
2024/04/16 05:13:42;;;;;;;11.77;3.17;;;;;;;10.43;100.00;99586.78;5501502;26;20753;-74
2024/04/16 05:16:07;;;;;;;13.03;3.30;;;;;;;10.55;100.00;99594.69;5501825;26;20347;-74
2024/04/16 05:18:32;;;;;;;10.50;2.55;;;;;;;10.47;100.00;99577.06;5486561;26;20840;-74
2024/04/16 05:20:58;;;;;;;12.87;2.33;;;;;;;10.43;100.00;99592.22;5493620;26;20403;-74
2024/04/16 05:23:24;;;;;;;10.63;2.53;;;;;;;10.43;100.00;99600.34;5481000;26;20760;-74
2024/04/16 05:26:02;;;;;;;8.83;2.57;;;;;;;10.39;100.00;99591.91;5493636;26;20334;-74
2024/04/16 05:28:27;;;;;;;10.88;3.13;;;;;;;10.38;100.00;99600.28;5501518;26;20319;-74
2024/04/16 05:30:52;;;;;;;12.00;2.83;;;;;;;10.27;100.00;99596.72;5507983;26;20700;-74
2024/04/16 05:33:18;;;;;;;12.30;2.90;;;;;;;10.27;100.00;99595.94;5488691;26;20749;-74
2024/04/16 05:35:43;;;;;;;10.87;2.50;;;;;;;10.34;100.00;99604.63;5476127;26;20398;-74
2024/04/16 05:38:08;;;;;;;13.00;2.77;;;;;;;10.44;100.00;99604.66;5481896;26;20366;-73
2024/04/16 05:40:34;;;;;;;13.60;2.45;;;;;;;10.54;100.00;99601.19;5481772;26;20755;-74
2024/04/16 05:42:59;;;;;;;7.90;2.67;;;;;;;10.48;100.00;99596.81;5467318;26;20376;-74
2024/04/16 05:45:24;;;;;;;9.32;2.47;;;;;;;10.48;100.00;99599.53;5482073;26;20319;-73
2024/04/16 05:47:49;;;;;;;11.13;2.57;;;;;;;10.47;100.00;99596.03;5469813;26;20330;-73
2024/04/16 05:50:15;;;;;;;10.07;2.37;;;;;;;10.50;100.00;99598.19;5477022;26;20355;-74
2024/04/16 05:52:40;;;;;;;12.30;2.97;;;;;;;10.54;100.00;99598.50;5478634;26;20809;-74
2024/04/16 05:55:05;;;;;;;10.80;2.37;;;;;;;10.54;100.00;99598.50;5474604;26;20326;-74
2024/04/16 05:57:31;;;;;;;10.00;2.50;;;;;;;10.35;100.00;99592.69;5473485;26;20396;-74
2024/04/16 05:59:56;;;;;;;8.52;2.15;;;;;;;10.22;100.00;99593.19;5499010;26;20343;-74
2024/04/16 06:02:22;;;;;;;9.37;3.03;;;;;;;10.26;100.00;99595.13;5471063;26;20333;-74
2024/04/16 06:04:47;;;;;;;11.67;2.63;;;;;;;10.34;100.00;99597.31;5485355;26;20354;-74
2024/04/16 06:07:13;;;;;;;8.70;2.85;;;;;;;10.29;100.00;99602.72;5483335;26;20894;-74
2024/04/16 06:09:38;;;;;;;13.23;3.83;;;;;;;10.33;100.00;99598.41;5497740;26;20456;-74
2024/04/16 06:12:03;;;;;;;11.73;2.30;;;;;;;10.35;100.00;99600.81;5498628;26;20341;-74
2024/04/16 06:14:29;;;;;;;10.87;2.57;;;;;;;10.27;100.00;99594.00;5487119;26;20378;-74
2024/04/16 06:16:54;;;;;;;9.90;2.17;;;;;;;10.16;100.00;99589.66;5487242;26;20322;-75
2024/04/16 06:19:19;;;;;;;7.10;2.00;;;;;;;10.16;100.00;99581.53;5487241;26;20334;-75
2024/04/16 06:21:44;;;;;;;10.30;2.40;;;;;;;10.13;100.00;99576.59;5453302;26;20805;-74
2024/04/16 06:24:10;;;;;;;11.77;2.67;;;;;;;10.15;100.00;99579.06;5485947;26;20326;-74
2024/04/16 06:26:35;;;;;;;12.48;2.55;;;;;;;10.20;100.00;99579.09;5479485;26;20330;-75
2024/04/16 06:29:02;;;;;;;10.63;2.30;;;;;;;10.15;100.00;99584.47;5450113;26;20351;-74
2024/04/16 06:31:27;;;;;;;10.98;2.80;;;;;;;10.05;100.00;99566.25;5483275;26;20880;-73
2024/04/16 06:33:53;;;;;;;8.95;1.73;;;;;;;10.00;100.00;99554.59;5490257;26;20403;-75
2024/04/16 06:36:18;;;;;;;11.33;2.37;;;;;;;10.01;100.00;99559.75;5503556;26;20444;-74
2024/04/16 06:38:43;;;;;;;8.38;2.38;;;;;;;10.11;100.00;99565.22;5484831;26;20422;-74
2024/04/16 06:41:08;;;;;;;11.57;2.50;;;;;;;10.10;100.00;99562.78;5486366;26;20323;-74
2024/04/16 06:43:34;;;;;;;11.57;2.87;;;;;;;10.06;100.00;99556.25;5486746;26;20338;-74
2024/04/16 06:45:59;;;;;;;9.93;1.93;;;;;;;10.11;100.00;99557.09;5485955;26;20357;-74
2024/04/16 06:48:24;;;;;;;14.05;2.72;;;;;;;10.07;100.00;99555.19;5487468;26;20310;-74
2024/04/16 06:50:50;;;;;;;10.53;2.00;;;;;;;10.12;100.00;99549.78;5487096;26;20360;-74
2024/04/16 06:53:16;;;;;;;9.25;2.03;;;;;;;10.18;100.00;99535.22;5487211;26;20672;-74
2024/04/16 06:55:41;;;;;;;10.20;2.30;;;;;;;10.40;100.00;99536.69;5485535;26;20306;-74
2024/04/16 06:58:07;;;;;;;7.22;1.90;;;;;;;10.63;100.00;99540.00;5487102;26;20322;-74
2024/04/16 07:00:33;;;;;;;9.07;1.90;;;;;;;10.70;100.00;99544.06;5486556;26;20845;-74
2024/04/16 07:02:58;;;;;;;10.02;1.80;;;;;;;10.70;100.00;99535.91;5486599;26;20318;-75
2024/04/16 07:05:24;;;;;;;8.37;2.20;;;;;;;10.68;100.00;99540.00;5484403;26;20655;-74
2024/04/16 07:07:49;;;;;;;7.27;1.67;;;;;;;10.69;100.00;99538.91;5479179;26;20322;-74
2024/04/16 07:10:14;;;;;;;10.73;2.00;;;;;;;10.67;100.00;99536.47;5495236;26;20346;-74
2024/04/16 07:12:40;;;;;;;6.83;1.60;;;;;;;10.59;100.00;99544.31;5495465;26;21019;-74
2024/04/16 07:15:05;;;;;;;9.50;1.70;;;;;;;10.41;100.00;99545.59;5502787;26;20316;-74
2024/04/16 07:17:31;;;;;;;5.93;1.73;;;;;;;10.35;100.00;99542.06;5499879;26;20538;-74
2024/04/16 07:19:56;;;;;;;8.45;1.63;;;;;;;10.27;100.00;99556.09;5485939;26;20641;-74
2024/04/16 07:22:22;;;;;;;7.88;1.73;;;;;;;10.21;100.00;99550.94;5499941;26;20322;-74
2024/04/16 07:24:49;;;;;;;9.40;1.95;;;;;;;10.09;100.00;99559.25;5490368;26;20412;-74
2024/04/16 07:27:15;;;;;;;13.43;1.83;;;;;;;10.02;100.00;99550.56;5490275;26;20330;-75
2024/04/16 07:29:42;;;;;;;8.98;1.98;;;;;;;9.99;100.00;99563.78;5502970;26;20434;-74
2024/04/16 07:32:07;;;;;;;5.32;1.50;;;;;;;10.02;100.00;99577.63;5503219;26;20319;-75
2024/04/16 07:34:32;;;;;;;8.13;2.20;;;;;;;9.91;100.00;99563.22;5491281;26;20892;-75
2024/04/16 07:36:57;;;;;;;5.67;2.10;;;;;;;9.90;100.00;99561.59;5500623;26;20318;-75
2024/04/16 07:39:23;;;;;;;8.97;1.60;;;;;;;10.01;100.00;99557.03;5502790;26;20793;-75
2024/04/16 07:41:48;;;;;;;5.80;1.57;;;;;;;10.10;100.00;99558.19;5503221;26;20360;-75
2024/04/16 07:44:13;;;;;;;7.73;2.07;;;;;;;10.14;100.00;99559.28;5492541;26;20919;-75
2024/04/16 07:46:38;;;;;;;5.60;1.40;;;;;;;10.09;100.00;99561.97;5509931;26;20308;-75
2024/04/16 07:49:04;;;;;;;7.37;2.00;;;;;;;10.05;100.00;99560.84;5495158;26;20738;-75
2024/04/16 07:51:29;;;;;;;7.77;1.53;;;;;;;10.05;100.00;99543.78;5489826;26;20423;-75
2024/04/16 07:53:54;;;;;;;6.73;1.80;;;;;;;10.00;100.00;99543.78;5488669;26;20415;-75
2024/04/16 07:56:19;;;;;;;13.27;2.13;;;;;;;9.98;100.00;99545.94;5488273;26;20334;-75
2024/04/16 07:58:45;;;;;;;8.77;1.70;;;;;;;10.05;100.00;99531.06;5500391;26;20798;-75
2024/04/16 08:01:12;;;;;;;7.80;1.43;;;;;;;10.07;100.00;99522.69;5503427;26;20310;-74
2024/04/16 08:03:37;;;;;;;8.73;1.80;;;;;;;10.05;100.00;99535.66;5497669;26;20458;-74
2024/04/16 08:06:03;;;;;;;7.43;1.63;;;;;;;10.11;100.00;99532.72;5485768;26;20325;-74
2024/04/16 08:08:28;;;;;;;10.60;1.90;;;;;;;10.20;100.00;99533.06;5509389;26;20355;-75
2024/04/16 08:10:54;;;;;;;9.83;2.03;;;;;;;10.28;100.00;99527.94;5489836;26;20820;-75
2024/04/16 08:13:19;;;;;;;8.50;1.80;;;;;;;10.41;100.00;99523.94;5484204;26;20318;-74
2024/04/16 08:15:44;;;;;;;6.47;1.43;;;;;;;10.36;100.00;99537.47;5488463;26;20351;-75
2024/04/16 08:18:10;;;;;;;9.03;2.30;;;;;;;10.43;100.00;99532.63;5489546;26;20832;-75
2024/04/16 08:20:36;;;;;;;8.18;1.90;;;;;;;10.49;100.00;99530.72;5488474;26;20365;-75
2024/04/16 08:23:01;;;;;;;5.70;1.80;;;;;;;10.52;100.00;99520.19;5485619;26;20314;-75
2024/04/16 08:25:26;;;;;;;6.67;1.83;;;;;;;10.54;100.00;99518.00;5487526;26;20389;-75
2024/04/16 08:27:51;;;;;;;6.55;2.28;;;;;;;10.51;100.00;99525.84;5508129;26;20312;-75
2024/04/16 08:30:17;;;;;;;9.13;2.23;;;;;;;10.54;100.00;99536.97;5495683;26;20411;-75
2024/04/16 08:32:45;;;;;;;7.82;2.22;;;;;;;10.62;100.00;99551.91;5487218;26;20685;-75
2024/04/16 08:35:22;;;;;;;4.65;1.63;;;;;;;10.47;100.00;99543.75;5489167;26;20306;-74
2024/04/16 08:37:47;;;;;;;9.02;1.70;;;;;;;10.11;100.00;99537.34;5484906;26;20743;-75
2024/04/16 08:40:13;;;;;;;10.50;2.00;;;;;;;10.02;100.00;99536.19;5506986;26;20402;-75
2024/04/16 08:42:40;;;;;;;6.53;1.73;;;;;;;10.09;100.00;99526.75;5499563;26;20657;-75
2024/04/16 08:45:06;;;;;;;7.75;1.45;;;;;;;10.11;100.00;99524.59;5488916;26;20381;-75
2024/04/16 08:47:33;;;;;;;7.97;1.77;;;;;;;10.17;100.00;99529.00;5488505;26;20354;-75
2024/04/16 08:49:59;;;;;;;7.28;1.90;;;;;;;10.25;100.00;99514.13;5488956;26;20334;-76
2024/04/16 08:52:26;;;;;;;7.10;1.67;;;;;;;10.20;100.00;99514.13;5455267;26;20387;-76
2024/04/16 08:54:53;;;;;;;7.20;1.80;;;;;;;10.32;100.00;99509.28;5502292;26;20345;-75
2024/04/16 08:57:20;;;;;;;7.55;2.42;;;;;;;10.35;100.00;99517.69;5506969;26;20324;-76
2024/04/16 08:59:45;;;;;;;5.17;1.50;;;;;;;10.35;100.00;99519.59;5508543;26;20303;-75
2024/04/16 09:02:12;;;;;;;6.43;1.60;;;;;;;10.46;100.00;99521.25;5501733;26;20794;-75
2024/04/16 09:04:39;;;;;;;4.88;1.52;;;;;;;10.47;100.00;99508.53;5500391;26;20319;-75
2024/04/16 09:07:07;;;;;;;7.38;1.80;;;;;;;10.48;100.00;99513.66;5505788;26;20326;-75
2024/04/16 09:09:33;;;;;;;4.97;1.20;;;;;;;10.45;100.00;99513.38;5508171;26;20841;-75
2024/04/16 09:11:59;;;;;;;5.15;1.70;;;;;;;10.35;100.00;99514.97;5501808;26;20306;-75
2024/04/16 09:14:24;;;;;;;6.28;2.63;;;;;;;10.45;100.00;99506.06;5486939;26;20441;-75
2024/04/16 09:16:49;;;;;;;5.60;1.87;;;;;;;10.44;100.00;99507.13;5488428;26;20400;-75
2024/04/16 09:19:15;;;;;;;4.45;1.55;;;;;;;10.65;100.00;99516.97;5488394;26;20322;-75
2024/04/16 09:21:41;;;;;;;6.28;2.17;;;;;;;10.64;100.00;99523.44;5487018;26;20778;-75
2024/04/16 09:24:06;;;;;;;6.93;1.60;;;;;;;10.65;100.00;99521.56;5488350;26;20408;-75
2024/04/16 09:26:35;;;;;;;4.07;1.30;;;;;;;10.70;100.00;99518.88;5488241;26;20708;-75
2024/04/16 09:29:01;;;;;;;4.63;1.30;;;;;;;10.64;100.00;99525.34;5488118;26;20328;-75
2024/04/16 09:31:26;;;;;;;4.17;0.93;;;;;;;10.60;100.00;99518.84;5488086;26;20404;-76
2024/04/16 09:33:51;;;;;;;4.57;1.70;;;;;;;10.50;100.00;99527.78;5486671;26;20326;-74
2024/04/16 09:36:17;;;;;;;6.87;1.20;;;;;;;10.50;100.00;99527.78;5488034;26;20311;-76
2024/04/16 09:38:46;;;;;;;7.37;1.80;;;;;;;10.57;100.00;99505.84;5487852;26;20322;-76
2024/04/16 09:41:13;;;;;;;6.53;1.35;;;;;;;10.44;100.00;99520.69;5487902;26;20330;-75
2024/04/16 09:43:41;;;;;;;6.60;1.52;;;;;;;10.52;100.00;99517.47;5498567;26;20363;-76
2024/04/16 09:46:14;;;;;;;7.50;1.90;;;;;;;10.59;100.00;99523.44;5500851;26;20748;-75
2024/04/16 09:48:41;;;;;;;4.05;1.70;;;;;;;10.70;100.00;99532.41;5507874;26;20438;-76
2024/04/16 09:51:07;;;;;;;3.28;1.30;;;;;;;10.73;100.00;99527.28;5504635;26;20316;-75
2024/04/16 09:53:39;;;;;;;4.72;1.10;;;;;;;10.68;100.00;99529.16;5486435;26;20366;-75
2024/04/16 09:56:07;;;;;;;10.45;1.20;;;;;;;10.73;100.00;99526.47;5487836;26;20311;-74
2024/04/16 09:58:33;;;;;;;5.20;1.10;;;;;;;10.67;100.00;99525.63;5487663;26;20829;-75
2024/04/16 10:00:59;;;;;;;5.30;1.47;;;;;;;10.63;100.00;99526.44;5487590;26;20396;-74
2024/04/16 10:03:27;;;;;;;5.28;1.23;;;;;;;10.64;100.00;99514.50;5486807;26;20334;-75
2024/04/16 10:05:53;;;;;;;5.97;1.27;;;;;;;10.65;100.00;99529.69;5501588;26;20342;-75
2024/04/16 10:08:20;;;;;;;6.63;1.60;;;;;;;10.61;100.00;99513.16;5507445;26;20375;-75
2024/04/16 10:10:47;;;;;;;4.28;1.70;;;;;;;10.69;100.00;99511.81;5504221;26;20316;-73
2024/04/16 10:13:14;;;;;;;5.45;1.65;;;;;;;10.67;100.00;99516.69;5489461;26;20318;-75
2024/04/16 10:15:42;;;;;;;5.95;1.23;;;;;;;10.83;100.00;99516.44;5487558;26;20318;-75
2024/04/16 10:18:10;;;;;;;6.72;1.27;;;;;;;10.79;100.00;99515.38;5487459;26;20315;-74
2024/04/16 10:20:35;;;;;;;6.40;1.48;;;;;;;10.81;100.00;99518.59;5487245;26;20864;-75
2024/04/16 10:23:02;;;;;;;6.85;1.60;;;;;;;10.80;100.00;99537.88;5486260;26;20318;-75
2024/04/16 10:25:28;;;;;;;5.53;1.57;;;;;;;10.75;100.00;99524.28;5487174;26;20358;-75
2024/04/16 10:27:53;;;;;;;4.93;1.27;;;;;;;10.73;100.00;99546.25;5487200;26;20366;-76
2024/04/16 10:30:19;;;;;;;9.47;1.40;;;;;;;10.58;100.00;99540.78;5487039;26;20824;-76
2024/04/16 10:32:46;;;;;;;5.57;2.28;;;;;;;10.56;100.00;99532.13;5485519;26;20372;-75
2024/04/16 10:35:12;;;;;;;9.90;3.10;;;;;;;10.59;100.00;99534.28;5487307;26;20322;-76
2024/04/16 10:37:38;;;;;;;5.07;1.53;;;;;;;10.61;100.00;99526.69;5486781;26;20342;-76
2024/04/16 10:40:03;;;;;;;4.73;1.17;;;;;;;10.71;100.00;99524.00;5486796;26;20330;-76
2024/04/16 10:42:29;;;;;;;5.05;2.33;;;;;;;10.65;100.00;99527.78;5487750;26;20319;-76
2024/04/16 10:44:56;;;;;;;11.98;4.90;;;;;;;10.65;100.00;99535.94;5486192;26;20330;-76
2024/04/16 10:47:25;;;;;;;5.07;2.63;;;;;;;10.62;100.00;99531.03;5486927;26;20315;-75
2024/04/16 10:49:50;;;;;;;8.32;1.75;;;;;;;10.68;100.00;99526.44;5498826;26;20931;-75
2024/04/16 10:52:19;;;;;;;8.67;1.23;;;;;;;10.82;100.00;99527.56;5493119;26;20318;-76
2024/04/16 10:54:47;;;;;;;4.07;1.27;;;;;;;10.78;100.00;99542.72;5487492;26;20752;-76
2024/04/16 10:57:13;;;;;;;5.47;1.20;;;;;;;10.87;100.00;99538.41;5486165;26;20394;-76
2024/04/16 10:59:38;;;;;;;3.85;1.17;;;;;;;10.92;100.00;99541.13;5497560;26;20723;-75
2024/04/16 11:02:04;;;;;;;2.23;1.10;;;;;;;10.94;100.00;99538.94;5485965;26;20318;-75
2024/04/16 11:04:31;;;;;;;9.20;1.47;;;;;;;10.93;100.00;99538.13;5486660;26;20383;-76
2024/04/16 11:06:57;;;;;;;2.80;1.20;;;;;;;10.88;100.00;99521.06;5489915;26;20327;-74
2024/04/16 11:09:22;;;;;;;4.10;1.30;;;;;;;10.90;100.00;99529.72;5498503;26;20353;-76
2024/04/16 11:11:49;;;;;;;5.03;1.10;;;;;;;10.91;100.00;99526.75;5498238;26;20658;-75
2024/04/16 11:14:15;;;;;;;7.00;1.60;;;;;;;11.02;100.00;99519.44;5487093;26;20322;-73
2024/04/16 11:16:41;;;;;;;6.10;1.80;;;;;;;10.96;100.00;99527.84;5499726;26;20319;-75
2024/04/16 11:19:07;;;;;;;5.03;1.60;;;;;;;10.88;100.00;99512.94;5495437;26;20323;-75